sensor_id;sensor_type;location;lat;lon;timestamp;pressure;altitude;pressure_sealevel;temperature;humidity
25638;BME280;13496;51.040;13.680;2022-09-21T00:00:01;100528.97;;;19.24;51.96
25638;BME280;13496;51.040;13.680;2022-09-21T00:05:06;100539.50;;;19.24;52.03
25638;BME280;13496;51.040;13.680;2022-09-21T00:10:08;100537.88;;;19.23;52.15
25638;BME280;13496;51.040;13.680;2022-09-21T00:15:10;100533.41;;;19.24;51.97
25638;BME280;13496;51.040;13.680;2022-09-21T00:20:13;100528.34;;;19.22;51.95
25638;BME280;13496;51.040;13.680;2022-09-21T00:25:15;100530.16;;;19.22;51.71
25638;BME280;13496;51.040;13.680;2022-09-21T00:30:17;100535.75;;;19.19;52.04
25638;BME280;13496;51.040;13.680;2022-09-21T00:35:18;100540.22;;;19.18;51.74
25638;BME280;13496;51.040;13.680;2022-09-21T00:40:20;100532.31;;;19.18;52.21
25638;BME280;13496;51.040;13.680;2022-09-21T00:45:22;100531.66;;;19.16;52.09
25638;BME280;13496;51.040;13.680;2022-09-21T00:50:24;100532.47;;;19.17;51.67
25638;BME280;13496;51.040;13.680;2022-09-21T00:55:36;100544.81;;;19.16;52.10
25638;BME280;13496;51.040;13.680;2022-09-21T01:00:39;100546.81;;;19.14;52.06
25638;BME280;13496;51.040;13.680;2022-09-21T01:05:41;100540.72;;;19.14;52.08
25638;BME280;13496;51.040;13.680;2022-09-21T01:11:10;100546.81;;;19.14;52.14
25638;BME280;13496;51.040;13.680;2022-09-21T01:16:52;100546.16;;;19.12;52.07
25638;BME280;13496;51.040;13.680;2022-09-21T01:22:06;100542.69;;;19.12;51.85
25638;BME280;13496;51.040;13.680;2022-09-21T01:32:53;100552.22;;;19.13;52.06
25638;BME280;13496;51.040;13.680;2022-09-21T01:38:06;100545.66;;;19.08;51.84
25638;BME280;13496;51.040;13.680;2022-09-21T01:43:12;100558.00;;;19.08;52.09
25638;BME280;13496;51.040;13.680;2022-09-21T01:48:17;100562.44;;;19.07;51.81
25638;BME280;13496;51.040;13.680;2022-09-21T01:53:33;100563.44;;;19.06;52.01
25638;BME280;13496;51.040;13.680;2022-09-21T01:58:45;100567.91;;;19.06;51.79
25638;BME280;13496;51.040;13.680;2022-09-21T02:03:52;100568.88;;;19.05;52.07
25638;BME280;13496;51.040;13.680;2022-09-21T02:08:56;100560.97;;;19.05;51.76
25638;BME280;13496;51.040;13.680;2022-09-21T02:13:58;100569.03;;;19.03;51.97
25638;BME280;13496;51.040;13.680;2022-09-21T02:24:34;100574.47;;;19.02;51.77
25638;BME280;13496;51.040;13.680;2022-09-21T02:29:50;100579.72;;;19.02;51.75
25638;BME280;13496;51.040;13.680;2022-09-21T02:35:02;100585.97;;;19.01;51.92
25638;BME280;13496;51.040;13.680;2022-09-21T02:40:29;100585.50;;;18.97;51.75
25638;BME280;13496;51.040;13.680;2022-09-21T02:45:51;100584.50;;;18.98;52.09
25638;BME280;13496;51.040;13.680;2022-09-21T02:50:57;100588.78;;;18.99;51.83
25638;BME280;13496;51.040;13.680;2022-09-21T02:56:00;100589.94;;;18.97;51.62
25638;BME280;13496;51.040;13.680;2022-09-21T03:01:08;100590.13;;;18.95;52.01
25638;BME280;13496;51.040;13.680;2022-09-21T03:06:10;100597.81;;;18.97;51.84
25638;BME280;13496;51.040;13.680;2022-09-21T03:11:16;100603.09;;;18.97;51.84
25638;BME280;13496;51.040;13.680;2022-09-21T03:16:18;100611.78;;;18.97;51.82
25638;BME280;13496;51.040;13.680;2022-09-21T03:21:20;100608.16;;;18.98;51.51
25638;BME280;13496;51.040;13.680;2022-09-21T03:26:22;100602.44;;;18.95;51.73
25638;BME280;13496;51.040;13.680;2022-09-21T03:31:24;100601.78;;;18.93;51.92
25638;BME280;13496;51.040;13.680;2022-09-21T03:36:25;100600.66;;;18.95;51.60
25638;BME280;13496;51.040;13.680;2022-09-21T03:41:27;100608.53;;;18.95;51.65
25638;BME280;13496;51.040;13.680;2022-09-21T03:46:29;100608.53;;;18.95;51.56
25638;BME280;13496;51.040;13.680;2022-09-21T03:51:30;100607.69;;;18.95;51.61
25638;BME280;13496;51.040;13.680;2022-09-21T03:56:32;100613.94;;;18.94;51.96
25638;BME280;13496;51.040;13.680;2022-09-21T04:01:34;100613.31;;;18.92;51.80
25638;BME280;13496;51.040;13.680;2022-09-21T04:06:36;100619.88;;;18.96;51.68
25638;BME280;13496;51.040;13.680;2022-09-21T04:11:38;100620.50;;;18.98;51.79
25638;BME280;13496;51.040;13.680;2022-09-21T04:16:40;100613.28;;;19.00;51.53
25638;BME280;13496;51.040;13.680;2022-09-21T04:21:41;100624.13;;;18.97;52.29
25638;BME280;13496;51.040;13.680;2022-09-21T04:26:44;100625.13;;;18.96;52.12
25638;BME280;13496;51.040;13.680;2022-09-21T04:31:46;100633.97;;;18.95;52.22
25638;BME280;13496;51.040;13.680;2022-09-21T04:36:48;100629.56;;;18.95;52.04
25638;BME280;13496;51.040;13.680;2022-09-21T04:41:50;100636.63;;;18.95;52.26
25638;BME280;13496;51.040;13.680;2022-09-21T04:46:51;100631.34;;;18.95;52.22
25638;BME280;13496;51.040;13.680;2022-09-21T04:51:53;100638.28;;;18.96;51.92
25638;BME280;13496;51.040;13.680;2022-09-21T04:56:55;100633.16;;;18.94;52.47
25638;BME280;13496;51.040;13.680;2022-09-21T05:01:57;100639.59;;;18.92;52.39
25638;BME280;13496;51.040;13.680;2022-09-21T05:06:58;100649.94;;;18.93;52.36
25638;BME280;13496;51.040;13.680;2022-09-21T05:12:00;100654.56;;;18.91;52.32
25638;BME280;13496;51.040;13.680;2022-09-21T05:17:03;100658.81;;;18.92;52.65
25638;BME280;13496;51.040;13.680;2022-09-21T05:22:05;100664.25;;;18.91;52.31
25638;BME280;13496;51.040;13.680;2022-09-21T05:27:07;100670.34;;;18.91;52.39
25638;BME280;13496;51.040;13.680;2022-09-21T05:32:16;100686.13;;;18.91;52.28
25638;BME280;13496;51.040;13.680;2022-09-21T05:37:44;100684.94;;;18.94;52.60
25638;BME280;13496;51.040;13.680;2022-09-21T05:42:47;100688.25;;;18.96;52.42
25638;BME280;13496;51.040;13.680;2022-09-21T05:47:57;100690.19;;;18.94;52.38
25638;BME280;13496;51.040;13.680;2022-09-21T05:58:35;100693.81;;;18.93;52.32
25638;BME280;13496;51.040;13.680;2022-09-21T06:03:42;100703.34;;;18.94;52.00
25638;BME280;13496;51.040;13.680;2022-09-21T06:08:44;100708.63;;;18.94;52.19
25638;BME280;13496;51.040;13.680;2022-09-21T06:13:45;100709.28;;;18.96;51.97
25638;BME280;13496;51.040;13.680;2022-09-21T06:18:47;100710.25;;;18.95;52.32
25638;BME280;13496;51.040;13.680;2022-09-21T06:23:49;100708.63;;;18.94;52.48
25638;BME280;13496;51.040;13.680;2022-09-21T06:28:50;100710.25;;;18.95;52.27
25638;BME280;13496;51.040;13.680;2022-09-21T06:33:52;100714.53;;;18.96;52.22
25638;BME280;13496;51.040;13.680;2022-09-21T06:38:54;100714.22;;;18.99;51.80
25638;BME280;13496;51.040;13.680;2022-09-21T06:43:55;100717.47;;;19.01;51.59
25638;BME280;13496;51.040;13.680;2022-09-21T06:48:57;100721.75;;;19.02;52.08
25638;BME280;13496;51.040;13.680;2022-09-21T06:53:59;100727.19;;;19.00;52.15
25638;BME280;13496;51.040;13.680;2022-09-21T06:59:01;100729.47;;;19.03;51.87
25638;BME280;13496;51.040;13.680;2022-09-21T07:04:03;100724.72;;;19.07;51.71
25638;BME280;13496;51.040;13.680;2022-09-21T07:09:05;100727.81;;;19.10;51.76
25638;BME280;13496;51.040;13.680;2022-09-21T07:14:07;100734.91;;;19.10;51.65
25638;BME280;13496;51.040;13.680;2022-09-21T07:19:08;100739.16;;;19.11;51.68
25638;BME280;13496;51.040;13.680;2022-09-21T07:24:10;100737.34;;;19.12;52.01
25638;BME280;13496;51.040;13.680;2022-09-21T07:29:12;100742.44;;;19.13;51.56
25638;BME280;13496;51.040;13.680;2022-09-21T07:34:13;100750.50;;;19.12;51.73
25638;BME280;13496;51.040;13.680;2022-09-21T07:39:15;100752.00;;;19.14;51.85
25638;BME280;13496;51.040;13.680;2022-09-21T07:44:17;100756.41;;;19.22;51.67
25638;BME280;13496;51.040;13.680;2022-09-21T07:49:18;100758.88;;;19.23;51.25
25638;BME280;13496;51.040;13.680;2022-09-21T07:54:20;100763.81;;;19.26;51.49
25638;BME280;13496;51.040;13.680;2022-09-21T07:59:22;100754.75;;;19.29;51.70
25638;BME280;13496;51.040;13.680;2022-09-21T08:04:24;100764.28;;;19.30;51.54
25638;BME280;13496;51.040;13.680;2022-09-21T08:09:26;100759.50;;;19.33;51.11
25638;BME280;13496;51.040;13.680;2022-09-21T08:14:27;100758.50;;;19.34;50.91
25638;BME280;13496;51.040;13.680;2022-09-21T08:19:29;100756.69;;;19.35;51.11
25638;BME280;13496;51.040;13.680;2022-09-21T08:24:31;100759.19;;;19.37;51.36
25638;BME280;13496;51.040;13.680;2022-09-21T08:29:33;100760.81;;;19.38;51.21
25638;BME280;13496;51.040;13.680;2022-09-21T08:34:36;100755.22;;;19.41;51.52
25638;BME280;13496;51.040;13.680;2022-09-21T08:39:38;100757.81;;;19.49;51.03
25638;BME280;13496;51.040;13.680;2022-09-21T08:44:43;100762.75;;;19.52;51.02
25638;BME280;13496;51.040;13.680;2022-09-21T08:49:54;100760.91;;;19.61;50.85
25638;BME280;13496;51.040;13.680;2022-09-21T08:55:00;100765.69;;;19.65;50.82
25638;BME280;13496;51.040;13.680;2022-09-21T09:00:13;100763.06;;;19.73;50.77
25638;BME280;13496;51.040;13.680;2022-09-21T09:05:40;100764.00;;;19.72;50.74
25638;BME280;13496;51.040;13.680;2022-09-21T09:16:35;100763.00;;;19.81;50.45
25638;BME280;13496;51.040;13.680;2022-09-21T09:21:41;100762.81;;;19.83;50.49
25638;BME280;13496;51.040;13.680;2022-09-21T09:26:46;100763.63;;;19.92;50.51
25638;BME280;13496;51.040;13.680;2022-09-21T09:31:51;100762.81;;;19.91;50.29
25638;BME280;13496;51.040;13.680;2022-09-21T09:37:00;100764.94;;;19.96;50.38
25638;BME280;13496;51.040;13.680;2022-09-21T09:42:41;100769.97;;;20.05;50.42
25638;BME280;13496;51.040;13.680;2022-09-21T09:48:53;100756.28;;;20.10;49.99
25638;BME280;13496;51.040;13.680;2022-09-21T09:53:46;100756.28;;;20.10;49.89
25638;BME280;13496;51.040;13.680;2022-09-21T09:58:52;100763.53;;;20.08;50.00
25638;BME280;13496;51.040;13.680;2022-09-21T10:04:16;100758.94;;;20.10;50.24
25638;BME280;13496;51.040;13.680;2022-09-21T10:09:26;100748.88;;;20.14;49.76
25638;BME280;13496;51.040;13.680;2022-09-21T10:14:32;100751.13;;;20.17;50.04
25638;BME280;13496;51.040;13.680;2022-09-21T10:19:35;100742.34;;;20.24;49.74
25638;BME280;13496;51.040;13.680;2022-09-21T10:24:45;100734.63;;;20.23;49.83
25638;BME280;13496;51.040;13.680;2022-09-21T10:29:50;100744.97;;;20.24;49.66
25638;BME280;13496;51.040;13.680;2022-09-21T10:45:25;100742.34;;;20.24;49.81
25638;BME280;13496;51.040;13.680;2022-09-21T10:50:40;100733.13;;;20.28;49.79
25638;BME280;13496;51.040;13.680;2022-09-21T10:55:48;100728.13;;;20.34;49.27
25638;BME280;13496;51.040;13.680;2022-09-21T11:00:52;100726.03;;;20.29;49.47
25638;BME280;13496;51.040;13.680;2022-09-21T11:06:18;100733.13;;;20.28;49.73
25638;BME280;13496;51.040;13.680;2022-09-21T11:11:58;100729.47;;;20.29;49.44
25638;BME280;13496;51.040;13.680;2022-09-21T11:23:02;100713.31;;;20.33;49.39
25638;BME280;13496;51.040;13.680;2022-09-21T11:28:14;100722.88;;;20.34;49.40
25638;BME280;13496;51.040;13.680;2022-09-21T11:39:05;100718.22;;;20.36;49.20
25638;BME280;13496;51.040;13.680;2022-09-21T11:44:49;100714.59;;;20.37;49.27
25638;BME280;13496;51.040;13.680;2022-09-21T11:56:06;100703.25;;;20.36;49.17
25638;BME280;13496;51.040;13.680;2022-09-21T12:06:44;100696.78;;;20.39;49.55
25638;BME280;13496;51.040;13.680;2022-09-21T12:12:15;100685.06;;;20.41;49.23
25638;BME280;13496;51.040;13.680;2022-09-21T12:17:37;100695.16;;;20.38;49.42
25638;BME280;13496;51.040;13.680;2022-09-21T12:22:46;100687.91;;;20.40;49.10
25638;BME280;13496;51.040;13.680;2022-09-21T12:27:58;100681.91;;;20.46;49.18
25638;BME280;13496;51.040;13.680;2022-09-21T12:33:15;100675.47;;;20.48;49.35
25638;BME280;13496;51.040;13.680;2022-09-21T12:38:29;100675.47;;;20.48;49.12
25638;BME280;13496;51.040;13.680;2022-09-21T12:48:48;100671.72;;;20.43;49.27
25638;BME280;13496;51.040;13.680;2022-09-21T12:53:52;100665.97;;;20.39;49.41
25638;BME280;13496;51.040;13.680;2022-09-21T12:59:12;100665.16;;;20.39;49.05
25638;BME280;13496;51.040;13.680;2022-09-21T13:09:45;100667.31;;;20.35;48.92
25638;BME280;13496;51.040;13.680;2022-09-21T13:14:50;100677.06;;;20.35;49.01
25638;BME280;13496;51.040;13.680;2022-09-21T13:19:57;100674.88;;;20.38;49.19
25638;BME280;13496;51.040;13.680;2022-09-21T13:25:03;100665.97;;;20.39;49.35
25638;BME280;13496;51.040;13.680;2022-09-21T13:30:28;100659.38;;;20.43;48.97
25638;BME280;13496;51.040;13.680;2022-09-21T13:36:04;100659.53;;;20.42;49.26
25638;BME280;13496;51.040;13.680;2022-09-21T13:51:50;100647.63;;;20.46;49.22
25638;BME280;13496;51.040;13.680;2022-09-21T13:56:58;100647.28;;;20.49;49.03
25638;BME280;13496;51.040;13.680;2022-09-21T14:02:01;100638.03;;;20.53;48.86
25638;BME280;13496;51.040;13.680;2022-09-21T14:07:05;100636.22;;;20.53;49.12
25638;BME280;13496;51.040;13.680;2022-09-21T14:12:16;100638.69;;;20.55;49.05
25638;BME280;13496;51.040;13.680;2022-09-21T14:33:53;100636.06;;;20.55;48.81
25638;BME280;13496;51.040;13.680;2022-09-21T14:38:58;100636.13;;;20.47;48.91
25638;BME280;13496;51.040;13.680;2022-09-21T14:44:02;100641.38;;;20.47;48.75
25638;BME280;13496;51.040;13.680;2022-09-21T14:54:42;100627.78;;;20.35;49.45
25638;BME280;13496;51.040;13.680;2022-09-21T15:05:33;100630.34;;;20.28;49.78
25638;BME280;13496;51.040;13.680;2022-09-21T15:21:27;100618.69;;;20.23;50.12
25638;BME280;13496;51.040;13.680;2022-09-21T15:26:32;100620.66;;;20.21;50.46
25638;BME280;13496;51.040;13.680;2022-09-21T15:31:36;100615.38;;;20.21;50.04
25638;BME280;13496;51.040;13.680;2022-09-21T15:36:41;100615.56;;;20.19;50.21
25638;BME280;13496;51.040;13.680;2022-09-21T15:41:44;100610.13;;;20.21;50.29
25638;BME280;13496;51.040;13.680;2022-09-21T15:46:50;100615.38;;;20.21;50.24
25638;BME280;13496;51.040;13.680;2022-09-21T15:57:05;100616.22;;;20.21;50.50
25638;BME280;13496;51.040;13.680;2022-09-21T16:02:26;100621.50;;;20.21;50.32
25638;BME280;13496;51.040;13.680;2022-09-21T16:12:45;100618.03;;;20.21;50.55
25638;BME280;13496;51.040;13.680;2022-09-21T16:17:59;100620.03;;;20.19;50.46
25638;BME280;13496;51.040;13.680;2022-09-21T16:23:05;100625.94;;;20.21;50.52
25638;BME280;13496;51.040;13.680;2022-09-21T16:28:34;100622.66;;;20.19;50.62
25638;BME280;13496;51.040;13.680;2022-09-21T16:33:39;100626.13;;;20.19;50.81
25638;BME280;13496;51.040;13.680;2022-09-21T16:38:45;100625.50;;;20.17;51.02
25638;BME280;13496;51.040;13.680;2022-09-21T16:43:48;100621.38;;;20.15;51.01
25638;BME280;13496;51.040;13.680;2022-09-21T16:48:51;100618.75;;;20.15;50.69
25638;BME280;13496;51.040;13.680;2022-09-21T16:53:54;100620.72;;;20.13;50.96
25638;BME280;13496;51.040;13.680;2022-09-21T16:58:57;100629.63;;;20.12;51.12
25638;BME280;13496;51.040;13.680;2022-09-21T17:04:00;100622.75;;;20.11;51.22
25638;BME280;13496;51.040;13.680;2022-09-21T17:09:14;100641.19;;;20.11;51.19
25638;BME280;13496;51.040;13.680;2022-09-21T17:14:17;100637.72;;;20.10;51.18
25638;BME280;13496;51.040;13.680;2022-09-21T17:19:19;100637.88;;;20.09;51.03
25638;BME280;13496;51.040;13.680;2022-09-21T17:24:21;100639.72;;;20.08;51.29
25638;BME280;13496;51.040;13.680;2022-09-21T17:29:25;100645.16;;;20.06;51.57
25638;BME280;13496;51.040;13.680;2022-09-21T17:34:28;100642.69;;;20.05;51.27
25638;BME280;13496;51.040;13.680;2022-09-21T17:39:32;100646.13;;;20.05;51.58
25638;BME280;13496;51.040;13.680;2022-09-21T17:44:39;100644.69;;;20.03;51.35
25638;BME280;13496;51.040;13.680;2022-09-21T17:49:42;100651.78;;;20.02;51.56
25638;BME280;13496;51.040;13.680;2022-09-21T17:54:44;100648.31;;;20.02;51.59
25638;BME280;13496;51.040;13.680;2022-09-21T17:59:51;100651.94;;;20.01;51.66
25638;BME280;13496;51.040;13.680;2022-09-21T18:05:02;100651.13;;;20.00;51.50
25638;BME280;13496;51.040;13.680;2022-09-21T18:10:05;100650.66;;;19.97;51.35
25638;BME280;13496;51.040;13.680;2022-09-21T18:25:57;100665.47;;;19.98;51.57
25638;BME280;13496;51.040;13.680;2022-09-21T18:42:04;100675.38;;;19.96;51.40
25638;BME280;13496;51.040;13.680;2022-09-21T18:47:21;100669.44;;;19.94;51.62
25638;BME280;13496;51.040;13.680;2022-09-21T18:52:49;100673.06;;;19.93;51.86
25638;BME280;13496;51.040;13.680;2022-09-21T18:57:55;100672.25;;;19.92;51.94
25638;BME280;13496;51.040;13.680;2022-09-21T19:02:59;100672.41;;;19.91;52.00
25638;BME280;13496;51.040;13.680;2022-09-21T19:13:39;100666.53;;;19.89;52.08
25638;BME280;13496;51.040;13.680;2022-09-21T19:24:10;100664.22;;;19.86;51.66
25638;BME280;13496;51.040;13.680;2022-09-21T19:29:37;100667.03;;;19.84;51.76
25638;BME280;13496;51.040;13.680;2022-09-21T19:34:42;100668.03;;;19.83;51.79
25638;BME280;13496;51.040;13.680;2022-09-21T19:39:44;100677.59;;;19.84;51.63
25638;BME280;13496;51.040;13.680;2022-09-21T19:50:14;100675.09;;;19.82;51.90
25638;BME280;13496;51.040;13.680;2022-09-21T19:55:19;100664.75;;;19.81;51.86
25638;BME280;13496;51.040;13.680;2022-09-21T20:00:41;100670.19;;;19.79;51.86
25638;BME280;13496;51.040;13.680;2022-09-21T20:05:58;100670.19;;;19.79;51.81
25638;BME280;13496;51.040;13.680;2022-09-21T20:11:26;100664.28;;;19.77;51.77
25638;BME280;13496;51.040;13.680;2022-09-21T20:16:41;100665.91;;;19.78;52.04
25638;BME280;13496;51.040;13.680;2022-09-21T20:21:47;100667.91;;;19.76;52.04
25638;BME280;13496;51.040;13.680;2022-09-21T20:26:50;100667.25;;;19.74;52.22
25638;BME280;13496;51.040;13.680;2022-09-21T20:31:52;100667.25;;;19.74;52.10
25638;BME280;13496;51.040;13.680;2022-09-21T20:36:54;100670.88;;;19.73;52.18
25638;BME280;13496;51.040;13.680;2022-09-21T20:41:55;100667.44;;;19.73;52.06
25638;BME280;13496;51.040;13.680;2022-09-21T20:46:58;100662.31;;;19.71;51.93
25638;BME280;13496;51.040;13.680;2022-09-21T20:52:00;100663.31;;;19.70;51.95
25638;BME280;13496;51.040;13.680;2022-09-21T20:57:02;100660.84;;;19.69;51.73
25638;BME280;13496;51.040;13.680;2022-09-21T21:02:05;100658.22;;;19.69;51.88
25638;BME280;13496;51.040;13.680;2022-09-21T21:07:08;100660.69;;;19.70;51.40
25638;BME280;13496;51.040;13.680;2022-09-21T21:12:10;100659.22;;;19.68;51.86
25638;BME280;13496;51.040;13.680;2022-09-21T21:17:13;100660.22;;;19.67;51.94
25638;BME280;13496;51.040;13.680;2022-09-21T21:22:15;100653.31;;;19.66;51.81
25638;BME280;13496;51.040;13.680;2022-09-21T21:27:19;100656.94;;;19.65;51.77
25638;BME280;13496;51.040;13.680;2022-09-21T21:32:23;100654.97;;;19.67;52.02
25638;BME280;13496;51.040;13.680;2022-09-21T21:37:28;100648.06;;;19.66;51.85
25638;BME280;13496;51.040;13.680;2022-09-21T21:42:29;100654.47;;;19.63;52.07
25638;BME280;13496;51.040;13.680;2022-09-21T21:47:31;100646.25;;;19.66;52.00
25638;BME280;13496;51.040;13.680;2022-09-21T21:52:33;100648.41;;;19.63;52.08
25638;BME280;13496;51.040;13.680;2022-09-21T21:57:35;100646.72;;;19.62;51.65
25638;BME280;13496;51.040;13.680;2022-09-21T22:02:38;100640.63;;;19.61;51.80
25638;BME280;13496;51.040;13.680;2022-09-21T22:07:39;100638.19;;;19.59;51.63
25638;BME280;13496;51.040;13.680;2022-09-21T22:12:41;100638.19;;;19.59;51.61
25638;BME280;13496;51.040;13.680;2022-09-21T22:17:44;100637.38;;;19.59;52.06
25638;BME280;13496;51.040;13.680;2022-09-21T22:22:46;100632.44;;;19.56;51.69
25638;BME280;13496;51.040;13.680;2022-09-21T22:27:47;100633.09;;;19.58;51.88
25638;BME280;13496;51.040;13.680;2022-09-21T22:32:49;100624.53;;;19.56;52.09
25638;BME280;13496;51.040;13.680;2022-09-21T22:37:52;100632.44;;;19.56;52.13
25638;BME280;13496;51.040;13.680;2022-09-21T22:42:54;100639.66;;;19.54;51.50
25638;BME280;13496;51.040;13.680;2022-09-21T22:47:56;100631.16;;;19.52;51.70
25638;BME280;13496;51.040;13.680;2022-09-21T22:52:58;100628.50;;;19.52;51.73
25638;BME280;13496;51.040;13.680;2022-09-21T22:58:00;100623.25;;;19.52;51.56
25638;BME280;13496;51.040;13.680;2022-09-21T23:03:01;100631.16;;;19.52;51.48
25638;BME280;13496;51.040;13.680;2022-09-21T23:08:03;100626.88;;;19.51;51.65
25638;BME280;13496;51.040;13.680;2022-09-21T23:13:06;100629.03;;;19.47;51.72
25638;BME280;13496;51.040;13.680;2022-09-21T23:18:08;100629.84;;;19.48;51.49
25638;BME280;13496;51.040;13.680;2022-09-21T23:23:10;100628.84;;;19.49;51.71
25638;BME280;13496;51.040;13.680;2022-09-21T23:28:11;100629.03;;;19.47;51.42
25638;BME280;13496;51.040;13.680;2022-09-21T23:33:13;100633.47;;;19.47;51.99
25638;BME280;13496;51.040;13.680;2022-09-21T23:38:15;100632.81;;;19.45;51.44
25638;BME280;13496;51.040;13.680;2022-09-21T23:43:16;100631.34;;;19.42;51.82
25638;BME280;13496;51.040;13.680;2022-09-21T23:48:18;100635.47;;;19.45;51.62
25638;BME280;13496;51.040;13.680;2022-09-21T23:53:21;100627.75;;;19.43;51.92
25638;BME280;13496;51.040;13.680;2022-09-21T23:58:23;100626.09;;;19.42;51.77
